• Join FlightAware (Why Join?)
  • Login
  • US Flag 
03:46PM EDT


 

Airport Tracker/Info


-or-


 

Live Flight TrackerFlight Track Log ✈ CCA4523 ✈ 26-Oct-2013 ✈ ZUJZ / JZH - ZSPD / PVG

Flight Track Log - Related Links

Times and Time Zones

All times are in EDT time to prevent confusion due to time zone crossing. See the CCA4523 flight status page for this flight to view local times or setup timezone preferences in your user account.

Time Position Orientation Groundspeed Altitude Reporting Facility
EDT Latitude Longitude Course Direction KTS MPH feet Rate Location/Type
01:38AM 32.8456 104.1623 91° East  Level Estimated
01:39AM 32.8414 104.3220 92° East  Level Estimated
01:40AM 32.8370 104.4818 92° East  Level Estimated
01:41AM 32.8324 104.6414 92° East  Level Estimated
01:42AM 32.8276 104.8011 92° East  Level Estimated
01:43AM 32.8226 104.9608 92° East  Level Estimated
01:44AM 32.8174 105.1205 92° East  Level Estimated
01:45AM 32.8120 105.2801 92° East  Level Estimated
01:46AM 32.8064 105.4397 92° East  Level Estimated
01:47AM 32.8005 105.5993 92° East  Level Estimated
01:48AM 32.7945 105.7589 93° East  Level Estimated
01:49AM 32.7883 105.9184 93° East  Level Estimated
01:50AM 32.7819 106.0779 93° East  Level Estimated
01:51AM 32.7752 106.2374 93° East  Level Estimated
01:52AM 32.7684 106.3969 93° East  Level Estimated
01:53AM 32.7614 106.5564 93° East  Level Estimated
01:54AM 32.7542 106.7158 93° East  Level Estimated
01:55AM 32.7467 106.8752 93° East  Level Estimated
01:55AM 32.4070 105.6470 93° East 483 556 36,600  Level FlightAware
01:55AM 32.3880 105.7270 106° East 483 556 36,600  Level FlightAware
01:56AM 32.7391 107.0346 93° East  Level Estimated
01:56AM 32.3690 105.8050 106° East 483 556 36,600  Level FlightAware
01:56AM 32.3500 105.8830 106° East 483 556 36,600  Level FlightAware
01:57AM 32.3380 105.9350 105° East 483 556 36,600  Level FlightAware
01:58AM 32.3000 106.0900 106° East 483 556 36,600  Level FlightAware
01:59AM 32.2800 106.1720 106° East 483 556 36,600  Level FlightAware
02:00AM 32.2490 106.3020 106° East 483 556 36,600  Level FlightAware
02:01AM 32.2050 106.4830 106° East 483 556 36,600  Level FlightAware
02:02AM 32.1790 106.5890 106° East 483 556 36,600  Level FlightAware
02:03AM 32.1600 106.6660 106° East 483 556 36,600  Level FlightAware
02:04AM 32.1280 106.7980 106° East 483 556 36,600  Level FlightAware
02:04AM 32.1090 106.8780 106° East 483 556 36,600  Level FlightAware
02:05AM 32.0960 106.9300 106° East 483 556 36,600 -240 Level FlightAware
02:08AM 32.0926 107.3949 90° East  Level Estimated
02:09AM 32.0910 107.5534 91° East  Level Estimated
02:10AM 32.0893 107.7118 91° East  Level Estimated
02:11AM 32.0874 107.8703 91° East  Level Estimated
02:12AM 32.0852 108.0287 91° East  Level Estimated
02:13AM 32.0829 108.1872 91° East  Level Estimated
02:14AM 32.0804 108.3456 91° East  Level Estimated
02:15AM 32.0776 108.5041 91° East  Level Estimated
02:16AM 32.0747 108.6625 91° East  Level Estimated
02:17AM 32.0716 108.8209 91° East  Level Estimated
02:18AM 32.0683 108.9793 91° East  Level Estimated
02:19AM 32.0647 109.1377 91° East  Level Estimated
02:20AM 32.0610 109.2960 92° East  Level Estimated
02:21AM 32.0571 109.4544 92° East  Level Estimated
02:22AM 32.0530 109.6127 92° East  Level Estimated
02:23AM 32.0487 109.7711 92° East  Level Estimated
02:24AM 32.0442 109.9294 92° East  Level Estimated
02:25AM 32.0395 110.0877 92° East  Level Estimated
02:26AM 32.0346 110.2460 92° East  Level Estimated
02:27AM 32.0295 110.4043 92° East  Level Estimated
02:28AM 32.0242 110.5625 92° East  Level Estimated
02:29AM 32.0187 110.7207 92° East  Level Estimated
02:30AM 32.0130 110.8789 92° East  Level Estimated
02:31AM 32.0072 111.0371 92° East  Level Estimated
02:32AM 32.0011 111.1953 93° East  Level Estimated
02:33AM 31.9948 111.3534 93° East  Level Estimated
02:34AM 31.9883 111.5116 93° East  Level Estimated
02:35AM 31.9817 111.6697 93° East  Level Estimated
02:36AM 31.9748 111.8278 93° East  Level Estimated
02:37AM 31.9678 111.9858 93° East  Level Estimated
02:38AM 31.9605 112.1439 93° East  Level Estimated
02:39AM 31.9531 112.3019 93° East  Level Estimated
02:40AM 31.9454 112.4598 93° East  Level Estimated
02:41AM 31.9376 112.6178 93° East  Level Estimated
02:42AM 31.9296 112.7757 93° East  Level Estimated
02:43AM 31.9213 112.9336 93° East  Level Estimated
02:44AM 31.9129 113.0915 94° East  Level Estimated
02:45AM 31.9043 113.2493 94° East  Level Estimated
02:46AM 31.8955 113.4072 94° East  Level Estimated
02:47AM 31.8865 113.5649 94° East  Level Estimated
02:48AM 31.8773 113.7227 94° East  Level Estimated
02:49AM 31.8679 113.8804 94° East  Level Estimated
02:50AM 31.8583 114.0381 94° East  Level Estimated
02:51AM 31.8485 114.1957 94° East  Level Estimated
02:52AM 31.8385 114.3534 94° East  Level Estimated
02:53AM 31.8283 114.5109 94° East  Level Estimated
02:54AM 31.8180 114.6685 94° East  Level Estimated
02:55AM 31.8074 114.8260 94° East  Level Estimated
02:56AM 31.7966 114.9835 95° East  Level Estimated
02:57AM 31.7857 115.1409 95° East  Level Estimated
02:58AM 31.7745 115.2983 95° East  Level Estimated
02:59AM 31.7632 115.4557 95° East  Level Estimated
03:00AM 31.7517 115.6130 95° East  Level Estimated
03:01AM 31.7400 115.7703 95° East  Level Estimated
03:02AM 31.7280 115.9276 95° East  Level Estimated
03:03AM 31.7159 116.0848 95° East  Level Estimated
03:04AM 31.7036 116.2419 95° East  Level Estimated
03:05AM 31.6911 116.3990 95° East  Level Estimated
03:06AM 31.6784 116.5561 95° East  Level Estimated
03:07AM 31.6655 116.7132 95° East  Level Estimated
03:08AM 31.6525 116.8701 96° East  Level Estimated
03:09AM 31.6392 117.0271 96° East  Level Estimated
03:10AM 31.6257 117.1840 96° East  Level Estimated
03:11AM 31.6121 117.3409 96° East  Level Estimated
03:12AM 31.5982 117.4977 96° East  Level Estimated
03:13AM 31.5842 117.6544 96° East  Level Estimated
03:14AM 31.5700 117.8111 96° East  Level Estimated
03:15AM 31.5556 117.9678 96° East  Level Estimated
03:16AM 31.5410 118.1244 96° East  Level Estimated
03:17AM 31.5261 118.2810 96° East  Level Estimated
03:18AM 31.5112 118.4375 96° East  Level Estimated
03:19AM 31.4960 118.5940 96° East  Level Estimated
03:20AM 31.4806 118.7504 97° East  Level Estimated
03:21AM 31.4650 118.9068 97° East  Level Estimated
03:22AM 31.4493 119.0631 97° East  Level Estimated
03:23AM 31.4334 119.2194 97° East  Level Estimated
03:24AM 31.4172 119.3756 97° East  Level Estimated
03:25AM 31.4009 119.5317 97° East  Level Estimated
03:26AM 31.3844 119.6878 97° East  Level Estimated
03:27AM 31.3677 119.8439 97° East  Level Estimated
03:28AM 31.3508 119.9998 97° East  Level Estimated
03:29AM 31.3337 120.1558 97° East  Level Estimated
03:30AM 31.3165 120.3117 97° East  Level Estimated
03:31AM 31.2990 120.4675 97° East  Level Estimated
03:32AM 31.2814 120.6232 98° East  Level Estimated
03:33AM 31.2636 120.7789 98° East  Level Estimated
03:34AM 31.2456 120.9346 98° East  Level Estimated
03:35AM 31.2274 121.0902 98° East  Level Estimated
03:36AM 31.2090 121.2457 98° East  Level Estimated
03:36AM 31.5600 120.4230 98° East 441 507 19,700  Level FlightAware
03:36AM 31.5350 120.5070 109° East 441 507 19,700  Level FlightAware
03:37AM 31.1904 121.4011 98° East  Level Estimated
03:37AM 31.5110 120.5850 110° East 442 509 19,700  Level FlightAware
03:37AM 31.4910 120.6540 109° East 441 507 19,700 -840 Level FlightAware
03:38AM 31.4710 120.7190 110° East 432 497 18,900 -1,980 Descending FlightAware
03:38AM 31.4540 120.7750 110° East 428 493 17,900 -2,160 Descending FlightAware
03:39AM 31.4220 120.8810 109° East 404 465 16,200 -2,160 Descending FlightAware
03:40AM 31.4010 120.9510 109° East 399 459 14,900 -2,160 Descending FlightAware
03:41AM 31.3640 121.0710 110° East 382 440 12,800 -1,920 Descending FlightAware
03:41AM 31.3400 121.1230 118° Southeast 382 440 12,100 -960 Descending FlightAware
03:42AM 31.2950 121.1690 139° Southeast 369 425 11,800 -300 Descending FlightAware
03:42AM 31.2490 121.2160 139° Southeast 370 426 11,800  Level FlightAware
03:43AM 31.2110 121.2540 139° Southeast 344 396 11,800 -180 Level FlightAware
03:44AM 31.1430 121.3230 139° Southeast 321 369 11,600 -960 Descending FlightAware
03:45AM 31.1080 121.3840 124° Southeast 312 359 10,200 -1,560 Descending FlightAware
03:45AM 31.0890 121.4380 112° Southeast 296 341 9,600 -1,200 Descending FlightAware
03:45AM 31.0790 121.4650 113° Southeast 295 339 9,100 -1,620 Descending FlightAware
03:46AM 31.0500 121.5450 113° Southeast 289 333 7,600 -1,500 Descending FlightAware
03:47AM 31.0300 121.5990 113° Southeast 277 319 6,800 -1,500 Descending FlightAware
03:48AM 31.0120 121.6480 113° Southeast 276 318 5,800 -1,380 Descending FlightAware
03:48AM 30.9870 121.6880 126° Southeast 261 300 5,200 -780 Descending FlightAware
03:49AM 30.9530 121.7150 146° Southeast 237 273 4,900 -480 Descending FlightAware
03:49AM 30.9270 121.7350 147° Southeast 218 251 4,700 -240 Descending FlightAware
03:50AM 30.8970 121.7570 148° Southeast 202 232 4,700 -540 Level FlightAware
03:51AM 30.8620 121.7850 146° Southeast 202 232 4,000 -840 Descending FlightAware
03:51AM 30.8440 121.8150 125° Southeast 203 234 3,600 -780 Descending FlightAware
03:51AM 30.8440 121.8370 90° East 199 229 3,300 -780 Descending FlightAware
03:52AM 30.8590 121.8650 58° Northeast 180 207 2,900 -420 Descending FlightAware
03:53AM 30.8970 121.8760 14° North 180 207 2,800 -120 Descending FlightAware
03:53AM 30.9200 121.8710 349° North 169 194 2,800  Level FlightAware
03:54AM 30.9520 121.8600 344° North 170 196 2,800 -120 Level FlightAware
03:55AM 30.9790 121.8500 342° North 167 192 2,700 -480 Descending FlightAware
03:55AM 31.0060 121.8400 342° North 154 177 2,200 -840 Descending FlightAware
03:56AM 31.0320 121.8300 342° North 135 155 1,700 -720 Descending FlightAware
03:57AM 31.0570 121.8200 341° North 107 123 1,200 -660 Descending FlightAware
03:57AM 31.0720 121.8150 344° North 104 120 900 -360 Descending FlightAware
03:58AM 31.0820 121.8100 337° Northwest 104 120 900 -600 Level FlightAware
03:58AM 31.1000 121.8040 344° North 104 120 300 -600 Descending FlightAware
03:59AM 31.1100 121.8000 341° North 104 120 300  Level FlightAware